Time;durP1;ratioP1;P1;durP2;ratioP2;P2;SDS_P1;SDS_P2;PMS_P1;PMS_P2;Temp;Humidity;BMP_temperature;BMP_pressure;BME280_temperature;BME280_humidity;BME280_pressure;Samples;Min_cycle;Max_cycle;Signal;HPM_P1;HPM_P2
2022/11/01 00:01:40;;;;;;;21.50;9.07;;;;;;;;;;5048421;28;20040;-64
2022/11/01 00:04:07;;;;;;;16.07;8.47;;;;;;;;;;5048792;28;20366;-64
2022/11/01 00:06:33;;;;;;;17.17;8.60;;;;;;;;;;5048152;28;20337;-64
2022/11/01 00:08:59;;;;;;;19.27;8.80;;;;;;;;;;5050969;28;20041;-63
2022/11/01 00:11:25;;;;;;;16.73;8.63;;;;;;;;;;5066768;28;20048;-64
2022/11/01 00:13:51;;;;;;;25.93;9.80;;;;;;;;;;5065298;28;20412;-64
2022/11/01 00:16:18;;;;;;;15.83;7.67;;;;;;;;;;5065521;28;20491;-64
2022/11/01 00:18:44;;;;;;;15.10;8.20;;;;;;;;;;5067399;28;20051;-64
2022/11/01 00:21:11;;;;;;;16.03;7.30;;;;;;;;;;5063530;28;20514;-64
2022/11/01 00:23:37;;;;;;;16.80;7.97;;;;;;;;;;5053153;28;20040;-63
2022/11/01 00:26:03;;;;;;;17.57;7.53;;;;;;;;;;5065897;28;20391;-64
2022/11/01 00:28:29;;;;;;;19.77;8.37;;;;;;;;;;5063862;28;20045;-64
2022/11/01 00:30:56;;;;;;;15.17;8.33;;;;;;;;;;5068311;28;20036;-63
2022/11/01 00:33:22;;;;;;;19.03;7.20;;;;;;;;;;5066736;28;20055;-64
2022/11/01 00:35:48;;;;;;;11.87;7.30;;;;;;;;;;5059773;28;20407;-63
2022/11/01 00:38:15;;;;;;;16.90;7.67;;;;;;;;;;5047248;28;20131;-63
2022/11/01 00:40:42;;;;;;;13.47;6.33;;;;;;;;;;5050051;28;20095;-63
2022/11/01 00:43:08;;;;;;;15.20;6.33;;;;;;;;;;5053386;28;21821;-64
2022/11/01 00:45:34;;;;;;;16.27;6.77;;;;;;;;;;5057675;28;20418;-64
2022/11/01 00:48:00;;;;;;;14.00;5.87;;;;;;;;;;5068054;28;20044;-63
2022/11/01 00:50:26;;;;;;;11.83;6.53;;;;;;;;;;5065097;28;20046;-64
2022/11/01 00:52:52;;;;;;;14.13;6.17;;;;;;;;;;5067781;28;20095;-64
2022/11/01 00:55:18;;;;;;;16.43;6.27;;;;;;;;;;5064577;28;20039;-63
2022/11/01 00:57:44;;;;;;;12.97;6.30;;;;;;;;;;5069552;28;20083;-64
2022/11/01 01:00:11;;;;;;;19.77;7.83;;;;;;;;;;5075140;28;20119;-64
2022/11/01 01:02:37;;;;;;;15.50;6.80;;;;;;;;;;5070670;28;20041;-64
2022/11/01 01:05:03;;;;;;;10.63;5.90;;;;;;;;;;5071021;28;20076;-64
2022/11/01 01:07:29;;;;;;;18.33;6.43;;;;;;;;;;5068636;28;20040;-64
2022/11/01 01:09:55;;;;;;;11.23;5.93;;;;;;;;;;5070475;28;20089;-64
2022/11/01 01:12:22;;;;;;;14.87;6.73;;;;;;;;;;5070676;28;20083;-63
2022/11/01 01:14:48;;;;;;;13.43;5.67;;;;;;;;;;5069359;28;20053;-64
2022/11/01 01:17:14;;;;;;;13.27;6.60;;;;;;;;;;5085296;28;20036;-63
2022/11/01 01:19:40;;;;;;;19.17;6.70;;;;;;;;;;5069615;28;20410;-64
2022/11/01 01:22:06;;;;;;;14.17;6.80;;;;;;;;;;5070553;28;20044;-63
2022/11/01 01:24:32;;;;;;;11.20;5.33;;;;;;;;;;5070939;28;20048;-63
2022/11/01 01:26:58;;;;;;;17.97;6.00;;;;;;;;;;5053602;28;20072;-63
2022/11/01 01:29:25;;;;;;;11.97;6.57;;;;;;;;;;5060467;28;20040;-64
2022/11/01 01:31:51;;;;;;;12.80;5.80;;;;;;;;;;5070936;28;20411;-64
2022/11/01 01:34:17;;;;;;;13.17;5.13;;;;;;;;;;5051172;28;20041;-64
2022/11/01 01:36:44;;;;;;;13.30;5.60;;;;;;;;;;5050256;28;20107;-64
2022/11/01 01:39:10;;;;;;;14.33;6.20;;;;;;;;;;5051029;28;20048;-64
2022/11/01 01:41:54;;;;;;;17.50;6.07;;;;;;;;;;5062584;28;20040;-63
2022/11/01 01:44:39;;;;;;;13.47;5.20;;;;;;;;;;5070772;28;20122;-64
2022/11/01 01:47:05;;;;;;;16.67;6.37;;;;;;;;;;5050940;28;20160;-64
2022/11/01 01:49:31;;;;;;;13.27;5.57;;;;;;;;;;5048798;28;20481;-64
2022/11/01 01:51:57;;;;;;;15.03;5.43;;;;;;;;;;5057562;28;20442;-64
2022/11/01 01:54:23;;;;;;;11.87;5.70;;;;;;;;;;5060025;28;20105;-64
2022/11/01 01:56:49;;;;;;;12.30;5.00;;;;;;;;;;5084338;28;20055;-64
2022/11/01 01:59:15;;;;;;;14.17;5.83;;;;;;;;;;5075828;28;20127;-64
2022/11/01 02:01:41;;;;;;;13.00;5.07;;;;;;;;;;5062463;28;20048;-64
2022/11/01 02:04:48;;;;;;;10.37;5.17;;;;;;;;;;5070515;28;20036;-64
2022/11/01 02:07:14;;;;;;;13.90;6.43;;;;;;;;;;5039516;28;20048;-64
2022/11/01 02:09:41;;;;;;;15.37;6.03;;;;;;;;;;5046824;28;20132;-64
2022/11/01 02:12:08;;;;;;;14.10;5.70;;;;;;;;;;5048908;28;20049;-64
2022/11/01 02:14:34;;;;;;;12.03;5.17;;;;;;;;;;5069812;28;20052;-64
2022/11/01 02:17:19;;;;;;;15.00;5.50;;;;;;;;;;5067885;28;20041;-64
2022/11/01 02:19:47;;;;;;;14.00;5.23;;;;;;;;;;5068762;28;20685;-64
2022/11/01 02:22:32;;;;;;;15.03;5.23;;;;;;;;;;5066711;28;20131;-64
2022/11/01 02:25:09;;;;;;;9.73;5.03;;;;;;;;;;5060143;28;20094;-64
2022/11/01 02:27:44;;;;;;;11.43;5.20;;;;;;;;;;5049681;28;20041;-64
2022/11/01 02:30:12;;;;;;;17.37;5.40;;;;;;;;;;5061524;28;20123;-64
2022/11/01 02:32:48;;;;;;;12.87;5.27;;;;;;;;;;5059700;28;20512;-64
2022/11/01 02:35:27;;;;;;;15.47;4.93;;;;;;;;;;5068041;28;20072;-64
2022/11/01 02:37:58;;;;;;;16.57;4.67;;;;;;;;;;5067480;28;20072;-64
2022/11/01 02:40:45;;;;;;;14.17;5.27;;;;;;;;;;5068619;28;20131;-63
2022/11/01 02:43:17;;;;;;;14.50;5.40;;;;;;;;;;5049251;28;20055;-64
2022/11/01 02:45:50;;;;;;;10.97;4.60;;;;;;;;;;5049379;28;20041;-64
2022/11/01 02:48:20;;;;;;;15.10;5.40;;;;;;;;;;5054853;28;20044;-64
2022/11/01 02:50:49;;;;;;;14.77;5.20;;;;;;;;;;5069889;28;20045;-64
2022/11/01 02:53:15;;;;;;;14.87;4.93;;;;;;;;;;5066213;28;20041;-64
2022/11/01 02:55:41;;;;;;;11.00;4.90;;;;;;;;;;5067741;28;20324;-63
2022/11/01 02:58:07;;;;;;;11.13;4.53;;;;;;;;;;5067733;28;20201;-64
2022/11/01 03:00:34;;;;;;;9.90;4.77;;;;;;;;;;5068280;28;20049;-64
2022/11/01 03:03:19;;;;;;;12.90;4.60;;;;;;;;;;5064714;28;20037;-64
2022/11/01 03:05:51;;;;;;;13.50;5.70;;;;;;;;;;5054441;28;20051;-64
2022/11/01 03:08:19;;;;;;;14.80;4.30;;;;;;;;;;5052433;28;20045;-64
2022/11/01 03:10:45;;;;;;;9.53;4.37;;;;;;;;;;5064482;28;20092;-64
2022/11/01 03:13:11;;;;;;;10.67;4.37;;;;;;;;;;5066973;28;20534;-64
2022/11/01 03:15:42;;;;;;;11.17;4.37;;;;;;;;;;5051878;28;20056;-64
2022/11/01 03:18:11;;;;;;;13.70;4.97;;;;;;;;;;5069098;28;20051;-64
2022/11/01 03:20:48;;;;;;;12.47;4.37;;;;;;;;;;5067217;28;20139;-64
2022/11/01 03:23:16;;;;;;;10.07;4.60;;;;;;;;;;5067481;28;20044;-63
2022/11/01 03:25:46;;;;;;;9.63;4.77;;;;;;;;;;5066568;28;20067;-64
2022/11/01 03:28:23;;;;;;;11.10;4.77;;;;;;;;;;5073572;28;20089;-64
2022/11/01 03:30:55;;;;;;;8.00;4.13;;;;;;;;;;5073393;28;20040;-64
2022/11/01 03:33:24;;;;;;;11.47;4.93;;;;;;;;;;5065007;28;20048;-64
2022/11/01 03:35:51;;;;;;;12.87;4.87;;;;;;;;;;5048221;28;20041;-64
2022/11/01 03:38:19;;;;;;;13.63;5.03;;;;;;;;;;5048895;28;20507;-64
2022/11/01 03:40:48;;;;;;;11.53;4.70;;;;;;;;;;5051390;28;20044;-64
2022/11/01 03:43:16;;;;;;;8.50;4.10;;;;;;;;;;5067545;28;20472;-64
2022/11/01 03:45:42;;;;;;;11.40;4.43;;;;;;;;;;5064911;28;20514;-64
2022/11/01 03:48:09;;;;;;;12.40;5.23;;;;;;;;;;5064354;28;20127;-64
2022/11/01 03:50:35;;;;;;;8.70;4.37;;;;;;;;;;5047459;28;20095;-64
2022/11/01 03:53:01;;;;;;;10.93;4.10;;;;;;;;;;5049100;28;20049;-64
2022/11/01 03:55:27;;;;;;;12.80;4.20;;;;;;;;;;5065549;28;20040;-63
2022/11/01 03:57:54;;;;;;;10.63;4.90;;;;;;;;;;5066953;28;20041;-64
2022/11/01 04:00:22;;;;;;;13.07;4.30;;;;;;;;;;5054276;28;20396;-64
2022/11/01 04:02:48;;;;;;;12.20;4.43;;;;;;;;;;5048439;28;20746;-64
2022/11/01 04:05:15;;;;;;;11.17;4.47;;;;;;;;;;5066570;28;20421;-64
2022/11/01 04:07:41;;;;;;;13.00;4.33;;;;;;;;;;5059944;28;20154;-64
2022/11/01 04:10:07;;;;;;;10.67;4.50;;;;;;;;;;5068482;28;20128;-64
2022/11/01 04:12:33;;;;;;;12.60;4.40;;;;;;;;;;5067093;28;20553;-63
2022/11/01 04:20:32;;;;;;;8.33;3.73;;;;;;;;;;5067280;28;20048;-63
2022/11/01 04:23:01;;;;;;;12.90;5.30;;;;;;;;;;5065676;28;20040;-64
2022/11/01 04:25:27;;;;;;;11.97;4.83;;;;;;;;;;5055644;28;20094;-64
2022/11/01 04:27:56;;;;;;;11.87;4.57;;;;;;;;;;5067366;28;20375;-64
2022/11/01 04:30:26;;;;;;;9.50;3.90;;;;;;;;;;5051484;28;20041;-64
2022/11/01 04:32:52;;;;;;;11.07;4.80;;;;;;;;;;5052051;28;20090;-64
2022/11/01 04:35:18;;;;;;;13.33;4.30;;;;;;;;;;5053731;28;20090;-64
2022/11/01 04:37:44;;;;;;;9.27;4.50;;;;;;;;;;5051696;28;20045;-64
2022/11/01 04:40:12;;;;;;;10.90;4.83;;;;;;;;;;5051669;28;20071;-64
2022/11/01 04:42:38;;;;;;;11.37;4.03;;;;;;;;;;5067727;28;20051;-64
2022/11/01 04:45:04;;;;;;;8.53;4.00;;;;;;;;;;5056127;28;20053;-64
2022/11/01 04:47:30;;;;;;;9.10;4.33;;;;;;;;;;5050740;28;20495;-63
2022/11/01 04:49:57;;;;;;;12.80;4.07;;;;;;;;;;5052634;28;20041;-64
2022/11/01 04:52:23;;;;;;;14.17;4.67;;;;;;;;;;5051852;28;20052;-64
2022/11/01 04:54:49;;;;;;;9.47;4.17;;;;;;;;;;5056263;28;20097;-64
2022/11/01 04:57:24;;;;;;;12.50;4.90;;;;;;;;;;5051401;28;20507;-64
2022/11/01 04:59:51;;;;;;;7.90;4.40;;;;;;;;;;5069031;28;20041;-64
2022/11/01 05:02:18;;;;;;;10.50;4.13;;;;;;;;;;5070139;28;20051;-64
2022/11/01 05:04:44;;;;;;;11.13;4.07;;;;;;;;;;5066165;28;20736;-64
2022/11/01 05:07:10;;;;;;;9.30;4.30;;;;;;;;;;5053857;28;20072;-64
2022/11/01 05:09:36;;;;;;;12.33;4.87;;;;;;;;;;5051306;28;20546;-64
2022/11/01 05:12:02;;;;;;;8.83;4.87;;;;;;;;;;5067270;28;20092;-63
2022/11/01 05:14:28;;;;;;;11.77;3.87;;;;;;;;;;5068515;28;20049;-64
2022/11/01 05:16:57;;;;;;;9.20;3.63;;;;;;;;;;5071117;28;20056;-63
2022/11/01 05:19:23;;;;;;;10.00;4.00;;;;;;;;;;5054739;28;20495;-63
2022/11/01 05:21:50;;;;;;;7.33;3.73;;;;;;;;;;5051677;28;20037;-64
2022/11/01 05:24:16;;;;;;;9.40;3.67;;;;;;;;;;5069543;28;20468;-63
2022/11/01 05:26:42;;;;;;;10.03;3.97;;;;;;;;;;5069537;28;20051;-64
2022/11/01 05:29:08;;;;;;;7.80;3.97;;;;;;;;;;5058828;28;20047;-64
2022/11/01 05:31:35;;;;;;;12.17;4.40;;;;;;;;;;5050645;28;20045;-64
2022/11/01 05:34:01;;;;;;;10.67;3.27;;;;;;;;;;5061577;28;20045;-64
2022/11/01 05:36:27;;;;;;;7.67;3.13;;;;;;;;;;5058081;28;20047;-64
2022/11/01 05:38:56;;;;;;;7.80;2.80;;;;;;;;;;5050676;28;20040;-64
2022/11/01 05:41:22;;;;;;;4.13;1.70;;;;;;;;;;5069476;28;20041;-64
2022/11/01 05:43:48;;;;;;;7.53;1.70;;;;;;;;;;5070782;28;20048;-64
2022/11/01 05:46:14;;;;;;;7.97;1.20;;;;;;;;;;5067732;28;20042;-64
2022/11/01 05:48:41;;;;;;;4.73;1.10;;;;;;;;;;5066731;28;20040;-64
2022/11/01 05:51:07;;;;;;;6.90;1.40;;;;;;;;;;5070186;28;20127;-64
2022/11/01 05:53:33;;;;;;;5.13;0.87;;;;;;;;;;5069779;28;20055;-64
2022/11/01 05:56:00;;;;;;;3.80;1.10;;;;;;;;;;5068146;28;20040;-64
2022/11/01 05:58:26;;;;;;;4.20;1.00;;;;;;;;;;5061834;28;20072;-64
2022/11/01 06:00:58;;;;;;;6.03;1.33;;;;;;;;;;5054894;28;20503;-63
2022/11/01 06:03:24;;;;;;;5.93;1.00;;;;;;;;;;5050515;28;20453;-64
2022/11/01 06:05:51;;;;;;;6.13;1.73;;;;;;;;;;5049792;28;20596;-64
2022/11/01 06:08:17;;;;;;;4.67;1.23;;;;;;;;;;5059498;28;20415;-63
2022/11/01 06:10:43;;;;;;;4.23;1.00;;;;;;;;;;5070534;28;20455;-64
2022/11/01 06:13:09;;;;;;;2.87;1.20;;;;;;;;;;5069870;28;20091;-64
2022/11/01 06:15:35;;;;;;;7.13;1.40;;;;;;;;;;5070284;28;20410;-64
2022/11/01 06:18:01;;;;;;;3.13;1.00;;;;;;;;;;5062973;28;20041;-64
2022/11/01 06:20:31;;;;;;;4.73;1.30;;;;;;;;;;5049818;28;20052;-63
2022/11/01 06:22:57;;;;;;;4.63;1.20;;;;;;;;;;5050728;28;20110;-64
2022/11/01 06:25:24;;;;;;;4.73;1.27;;;;;;;;;;5049926;28;20095;-64
2022/11/01 06:27:50;;;;;;;2.70;0.93;;;;;;;;;;5069411;28;20040;-64
2022/11/01 06:30:16;;;;;;;5.00;1.40;;;;;;;;;;5067713;28;20450;-64
2022/11/01 06:32:42;;;;;;;8.77;1.47;;;;;;;;;;5068137;28;20041;-64
2022/11/01 06:35:10;;;;;;;4.70;1.10;;;;;;;;;;5068457;28;20048;-64
2022/11/01 06:37:36;;;;;;;6.23;1.60;;;;;;;;;;5069120;28;20114;-63
2022/11/01 06:40:03;;;;;;;2.33;0.80;;;;;;;;;;5068363;28;20123;-63
2022/11/01 06:42:29;;;;;;;5.03;1.10;;;;;;;;;;5065882;28;20087;-64
2022/11/01 06:44:55;;;;;;;5.83;1.40;;;;;;;;;;5069307;28;20102;-63
2022/11/01 06:47:21;;;;;;;4.83;1.77;;;;;;;;;;5066734;28;20442;-63
2022/11/01 06:49:46;;;;;;;5.97;1.10;;;;;;;;;;5055692;28;20049;-64
2022/11/01 06:52:12;;;;;;;5.40;1.10;;;;;;;;;;5068695;28;20131;-64
2022/11/01 06:54:38;;;;;;;4.03;0.90;;;;;;;;;;5059651;28;20073;-64
2022/11/01 06:57:04;;;;;;;7.27;1.13;;;;;;;;;;5048975;28;20057;-64
2022/11/01 06:59:31;;;;;;;6.87;1.13;;;;;;;;;;5049190;28;20076;-64
2022/11/01 07:01:57;;;;;;;4.17;0.80;;;;;;;;;;5048679;28;20045;-64
2022/11/01 07:04:23;;;;;;;5.87;1.27;;;;;;;;;;5048908;28;20134;-63
2022/11/01 07:06:49;;;;;;;3.07;0.87;;;;;;;;;;5057919;28;20068;-63
2022/11/01 07:09:15;;;;;;;5.97;1.30;;;;;;;;;;5068598;28;20110;-64
2022/11/01 07:11:41;;;;;;;7.90;1.30;;;;;;;;;;5066763;28;20049;-63
2022/11/01 07:14:07;;;;;;;4.37;0.70;;;;;;;;;;5053128;28;20123;-63
2022/11/01 07:16:33;;;;;;;6.07;1.10;;;;;;;;;;5048659;28;20045;-64
2022/11/01 07:18:59;;;;;;;3.40;0.90;;;;;;;;;;5048700;28;20037;-64
2022/11/01 07:21:25;;;;;;;8.23;1.13;;;;;;;;;;5048285;28;20408;-64
2022/11/01 07:23:53;;;;;;;6.30;1.03;;;;;;;;;;5047429;28;20091;-63
2022/11/01 07:26:19;;;;;;;3.03;1.00;;;;;;;;;;5048282;28;20396;-64
2022/11/01 07:28:45;;;;;;;4.90;1.17;;;;;;;;;;5048324;28;20163;-64
2022/11/01 07:31:11;;;;;;;5.40;1.10;;;;;;;;;;5048318;28;20112;-64
2022/11/01 07:33:37;;;;;;;6.03;1.53;;;;;;;;;;5048234;28;20049;-64
2022/11/01 07:36:03;;;;;;;6.33;1.27;;;;;;;;;;5047864;28;20172;-64
2022/11/01 07:38:30;;;;;;;11.70;1.33;;;;;;;;;;5048411;28;20463;-64
2022/11/01 07:40:56;;;;;;;7.83;1.80;;;;;;;;;;5060173;28;20044;-63
2022/11/01 07:43:22;;;;;;;8.93;1.37;;;;;;;;;;5068299;28;20040;-63
2022/11/01 07:45:49;;;;;;;6.67;1.37;;;;;;;;;;5066883;28;20127;-63
2022/11/01 07:48:16;;;;;;;8.93;2.13;;;;;;;;;;5060049;28;20400;-63
2022/11/01 07:50:43;;;;;;;10.33;1.40;;;;;;;;;;5049927;28;20041;-63
2022/11/01 07:53:10;;;;;;;10.63;1.73;;;;;;;;;;5060536;28;20033;-63
2022/11/01 07:55:37;;;;;;;9.73;1.47;;;;;;;;;;5048031;28;20417;-64
2022/11/01 07:58:03;;;;;;;13.00;2.43;;;;;;;;;;5058876;28;20040;-64
2022/11/01 08:00:30;;;;;;;10.10;1.93;;;;;;;;;;5066844;28;20041;-64
2022/11/01 08:03:00;;;;;;;17.43;1.97;;;;;;;;;;5048266;28;20041;-63
2022/11/01 08:05:26;;;;;;;10.20;2.13;;;;;;;;;;5059319;28;20049;-63
2022/11/01 08:07:52;;;;;;;5.60;1.33;;;;;;;;;;5058146;28;20051;-63
2022/11/01 08:10:18;;;;;;;11.37;2.00;;;;;;;;;;5060276;28;20116;-64
2022/11/01 08:12:44;;;;;;;10.43;3.07;;;;;;;;;;5059105;28;20091;-63
2022/11/01 08:15:10;;;;;;;10.63;2.40;;;;;;;;;;5054039;28;20476;-63
2022/11/01 08:17:36;;;;;;;11.93;1.87;;;;;;;;;;5058569;28;20501;-64
2022/11/01 08:20:02;;;;;;;10.33;1.93;;;;;;;;;;5057353;28;20041;-63
2022/11/01 08:22:28;;;;;;;9.80;1.90;;;;;;;;;;5052378;28;20512;-64
2022/11/01 08:24:54;;;;;;;14.30;2.70;;;;;;;;;;5069258;28;20087;-64
2022/11/01 08:27:20;;;;;;;15.93;2.17;;;;;;;;;;5054637;28;20059;-64
2022/11/01 08:29:46;;;;;;;16.13;2.83;;;;;;;;;;5066907;28;20037;-64
2022/11/01 08:32:12;;;;;;;11.03;1.93;;;;;;;;;;5052165;28;20044;-63
2022/11/01 08:34:38;;;;;;;17.93;3.67;;;;;;;;;;5057211;28;20097;-63
2022/11/01 08:37:05;;;;;;;11.43;2.50;;;;;;;;;;5068855;28;20402;-63
2022/11/01 08:39:31;;;;;;;15.03;3.10;;;;;;;;;;5052043;28;20056;-63
2022/11/01 08:41:59;;;;;;;14.90;2.53;;;;;;;;;;5051490;28;20044;-63
2022/11/01 08:44:25;;;;;;;8.47;2.07;;;;;;;;;;5066293;28;20052;-63
2022/11/01 08:46:53;;;;;;;16.40;3.00;;;;;;;;;;5071337;28;20047;-63
2022/11/01 08:49:19;;;;;;;17.87;2.67;;;;;;;;;;5070466;28;20053;-63
2022/11/01 08:51:45;;;;;;;15.17;2.67;;;;;;;;;;5071077;28;20060;-63
2022/11/01 08:54:11;;;;;;;21.10;3.10;;;;;;;;;;5071161;28;20509;-63
2022/11/01 08:56:37;;;;;;;17.87;2.83;;;;;;;;;;5070727;28;20052;-63
2022/11/01 08:59:03;;;;;;;15.53;2.93;;;;;;;;;;5070487;28;20169;-63
2022/11/01 09:01:29;;;;;;;13.27;2.87;;;;;;;;;;5053358;28;20055;-63
2022/11/01 09:03:56;;;;;;;11.97;2.60;;;;;;;;;;5051118;28;20041;-64
2022/11/01 09:06:23;;;;;;;13.90;2.73;;;;;;;;;;5051116;28;20072;-63
2022/11/01 09:08:49;;;;;;;13.77;2.40;;;;;;;;;;5049780;28;20060;-63
2022/11/01 09:11:15;;;;;;;19.60;4.30;;;;;;;;;;5050407;28;20041;-63
2022/11/01 09:13:41;;;;;;;14.73;3.40;;;;;;;;;;5050540;28;20049;-63
2022/11/01 09:16:08;;;;;;;9.03;2.10;;;;;;;;;;5051201;28;20045;-63
2022/11/01 09:18:34;;;;;;;13.27;3.13;;;;;;;;;;5049219;28;20048;-63
2022/11/01 09:21:00;;;;;;;9.40;1.97;;;;;;;;;;5050253;28;20041;-63
2022/11/01 09:23:27;;;;;;;13.20;2.43;;;;;;;;;;5049604;28;20095;-63
2022/11/01 09:25:53;;;;;;;14.47;3.40;;;;;;;;;;5050651;28;20124;-63
2022/11/01 09:28:19;;;;;;;11.30;2.80;;;;;;;;;;5049338;28;20083;-63
2022/11/01 09:30:45;;;;;;;13.43;2.37;;;;;;;;;;5065081;28;20044;-63
2022/11/01 09:33:11;;;;;;;13.83;2.60;;;;;;;;;;5070671;28;20056;-63
2022/11/01 09:35:38;;;;;;;29.13;4.73;;;;;;;;;;5069106;28;20059;-64
2022/11/01 09:38:04;;;;;;;12.10;3.03;;;;;;;;;;5070562;28;20052;-63
2022/11/01 09:40:34;;;;;;;11.17;2.70;;;;;;;;;;5070459;28;20459;-64
2022/11/01 09:43:01;;;;;;;8.43;1.83;;;;;;;;;;5070165;28;20051;-63
2022/11/01 09:45:29;;;;;;;11.47;2.97;;;;;;;;;;5055184;28;20431;-63
2022/11/01 09:47:57;;;;;;;11.77;2.60;;;;;;;;;;5050319;28;20041;-64
2022/11/01 09:50:33;;;;;;;12.50;3.33;;;;;;;;;;5050331;28;20052;-64
2022/11/01 09:53:01;;;;;;;14.53;2.50;;;;;;;;;;5049966;28;20090;-63
2022/11/01 09:55:39;;;;;;;12.47;2.43;;;;;;;;;;5050371;28;20454;-64
2022/11/01 09:58:17;;;;;;;12.23;2.60;;;;;;;;;;5050005;28;20045;-63
2022/11/01 10:00:46;;;;;;;14.70;2.40;;;;;;;;;;5069188;28;20765;-64
2022/11/01 10:03:32;;;;;;;13.87;3.17;;;;;;;;;;5070113;28;20045;-64
2022/11/01 10:06:04;;;;;;;17.30;2.87;;;;;;;;;;5069769;28;20048;-64
2022/11/01 10:08:36;;;;;;;13.97;2.73;;;;;;;;;;5069846;28;20130;-64
2022/11/01 10:11:24;;;;;;;12.63;3.13;;;;;;;;;;5069442;28;20071;-63
2022/11/01 10:13:52;;;;;;;11.83;2.23;;;;;;;;;;5052750;28;20102;-63
2022/11/01 10:16:28;;;;;;;12.30;2.20;;;;;;;;;;5050163;28;20052;-63
2022/11/01 10:19:00;;;;;;;11.07;2.33;;;;;;;;;;5049773;28;20041;-63
2022/11/01 10:21:27;;;;;;;11.77;2.43;;;;;;;;;;5049826;28;20053;-63
2022/11/01 10:23:55;;;;;;;11.33;2.13;;;;;;;;;;5065005;28;20052;-64
2022/11/01 10:26:24;;;;;;;16.23;3.43;;;;;;;;;;5049719;28;20048;-64
2022/11/01 10:29:17;;;;;;;14.50;3.23;;;;;;;;;;5051635;28;20430;-64
2022/11/01 10:31:45;;;;;;;17.60;3.80;;;;;;;;;;5048072;28;20423;-64
2022/11/01 10:34:17;;;;;;;14.20;3.47;;;;;;;;;;5050210;28;20053;-64
2022/11/01 10:36:45;;;;;;;20.37;3.10;;;;;;;;;;5049292;28;20048;-63
2022/11/01 10:39:17;;;;;;;17.17;3.23;;;;;;;;;;5050543;28;20077;-64
2022/11/01 10:41:47;;;;;;;23.13;4.93;;;;;;;;;;5053032;28;20514;-64
2022/11/01 10:44:15;;;;;;;14.53;2.73;;;;;;;;;;5069450;28;20040;-64
2022/11/01 10:46:44;;;;;;;21.00;3.13;;;;;;;;;;5069038;28;20053;-64
2022/11/01 10:49:18;;;;;;;12.70;2.40;;;;;;;;;;5069513;28;20079;-64
2022/11/01 10:51:45;;;;;;;14.00;3.23;;;;;;;;;;5067822;28;20055;-64
2022/11/01 10:54:15;;;;;;;18.47;3.00;;;;;;;;;;5068412;28;20055;-64
2022/11/01 10:56:44;;;;;;;10.77;2.30;;;;;;;;;;5062695;28;20095;-64
2022/11/01 10:59:14;;;;;;;16.23;3.20;;;;;;;;;;5049442;28;20059;-64
2022/11/01 11:01:41;;;;;;;14.27;2.83;;;;;;;;;;5049200;28;20049;-64
2022/11/01 11:04:10;;;;;;;12.87;3.33;;;;;;;;;;5062941;28;20475;-64
2022/11/01 11:06:37;;;;;;;14.70;3.77;;;;;;;;;;5064097;28;20045;-64
2022/11/01 11:09:04;;;;;;;14.03;2.80;;;;;;;;;;5068829;28;20522;-63
2022/11/01 11:11:43;;;;;;;24.73;4.10;;;;;;;;;;5068862;28;20063;-63
2022/11/01 11:14:10;;;;;;;14.30;3.07;;;;;;;;;;5067853;28;20057;-63
2022/11/01 11:16:45;;;;;;;14.67;2.83;;;;;;;;;;5069255;28;20048;-64
2022/11/01 11:19:14;;;;;;;13.63;2.77;;;;;;;;;;5050034;28;20491;-63
2022/11/01 11:21:46;;;;;;;14.73;3.63;;;;;;;;;;5049384;28;20076;-63
2022/11/01 11:24:18;;;;;;;12.03;2.17;;;;;;;;;;5061036;28;20059;-63
2022/11/01 11:26:45;;;;;;;10.97;2.40;;;;;;;;;;5058273;28;20049;-63
2022/11/01 11:29:14;;;;;;;14.60;2.97;;;;;;;;;;5066926;28;20506;-64
2022/11/01 11:31:41;;;;;;;13.23;3.03;;;;;;;;;;5056975;28;20047;-64
2022/11/01 11:34:13;;;;;;;12.97;3.23;;;;;;;;;;5059017;28;20041;-63
2022/11/01 11:36:42;;;;;;;12.40;2.93;;;;;;;;;;5063958;28;20411;-64
2022/11/01 11:39:23;;;;;;;10.23;2.10;;;;;;;;;;5053872;28;20037;-64
2022/11/01 11:41:49;;;;;;;13.17;2.50;;;;;;;;;;5067711;28;20051;-63
2022/11/01 11:44:33;;;;;;;11.77;2.40;;;;;;;;;;5066761;28;20040;-64
2022/11/01 11:47:01;;;;;;;13.27;3.53;;;;;;;;;;5051452;28;20060;-64
2022/11/01 11:49:28;;;;;;;9.30;1.80;;;;;;;;;;5067086;28;20090;-64
2022/11/01 11:51:54;;;;;;;12.93;2.80;;;;;;;;;;5066922;28;20491;-64
2022/11/01 11:54:20;;;;;;;9.97;2.53;;;;;;;;;;5068711;28;20044;-64
2022/11/01 11:56:49;;;;;;;13.67;2.93;;;;;;;;;;5068136;28;20049;-63
2022/11/01 11:59:24;;;;;;;12.07;2.40;;;;;;;;;;5068666;28;20040;-64
2022/11/01 12:01:55;;;;;;;12.23;3.27;;;;;;;;;;5051674;28;20112;-63
2022/11/01 12:04:22;;;;;;;14.37;3.27;;;;;;;;;;5046794;28;20146;-64
2022/11/01 12:06:48;;;;;;;14.30;2.50;;;;;;;;;;5047291;28;20103;-64
2022/11/01 12:09:33;;;;;;;11.50;2.50;;;;;;;;;;5048599;28;20167;-64
2022/11/01 12:12:05;;;;;;;10.33;2.50;;;;;;;;;;5047027;28;20057;-64
2022/11/01 12:14:34;;;;;;;11.20;2.50;;;;;;;;;;5048302;28;20554;-64
2022/11/01 12:17:00;;;;;;;10.17;2.30;;;;;;;;;;5048189;28;20075;-64
2022/11/01 12:19:28;;;;;;;13.83;2.30;;;;;;;;;;5047789;28;20131;-64
2022/11/01 12:21:55;;;;;;;11.13;2.63;;;;;;;;;;5048229;28;20088;-63
2022/11/01 12:24:23;;;;;;;14.53;3.33;;;;;;;;;;5048206;28;20136;-64
2022/11/01 12:26:51;;;;;;;8.67;2.20;;;;;;;;;;5056262;28;20048;-63
2022/11/01 12:29:38;;;;;;;9.23;2.37;;;;;;;;;;5048113;28;20568;-63
2022/11/01 12:32:14;;;;;;;7.63;2.07;;;;;;;;;;5048274;28;20419;-63
2022/11/01 12:34:41;;;;;;;11.77;2.17;;;;;;;;;;5047810;28;20059;-63
2022/11/01 12:37:23;;;;;;;12.97;2.63;;;;;;;;;;5048054;28;20048;-63
2022/11/01 12:40:01;;;;;;;9.30;2.43;;;;;;;;;;5048030;28;20479;-64
2022/11/01 12:42:53;;;;;;;14.03;2.37;;;;;;;;;;5048152;28;20057;-64
2022/11/01 12:45:36;;;;;;;15.60;3.00;;;;;;;;;;5046141;28;20529;-64
2022/11/01 12:48:04;;;;;;;12.23;2.10;;;;;;;;;;5047640;28;20044;-64
2022/11/01 12:50:41;;;;;;;13.30;2.00;;;;;;;;;;5047902;28;20048;-64
2022/11/01 12:53:28;;;;;;;11.77;2.40;;;;;;;;;;5049301;28;20048;-64
2022/11/01 12:55:56;;;;;;;11.57;2.00;;;;;;;;;;5051280;28;20606;-64
2022/11/01 12:58:23;;;;;;;11.63;2.50;;;;;;;;;;5051501;28;20060;-64
2022/11/01 13:00:58;;;;;;;11.70;2.23;;;;;;;;;;5051493;28;20067;-63
2022/11/01 13:03:47;;;;;;;10.20;2.10;;;;;;;;;;5051673;28;20049;-64
2022/11/01 13:06:18;;;;;;;13.67;2.37;;;;;;;;;;5051422;28;20102;-61
2022/11/01 13:08:58;;;;;;;8.20;2.60;;;;;;;;;;5050964;28;20584;-61
2022/11/01 13:11:33;;;;;;;11.23;2.90;;;;;;;;;;5051164;28;20106;-61
2022/11/01 13:14:25;;;;;;;11.00;2.07;;;;;;;;;;5051332;28;20620;-61
2022/11/01 13:16:58;;;;;;;13.03;2.27;;;;;;;;;;5050010;28;20068;-61
2022/11/01 13:19:32;;;;;;;11.07;1.95;;;;;;;;;;5050820;28;20049;-61
2022/11/01 13:22:01;;;;;;;8.13;2.27;;;;;;;;;;5051042;28;20049;-61
2022/11/01 13:24:36;;;;;;;8.43;2.30;;;;;;;;;;5051273;28;20045;-61
2022/11/01 13:27:11;;;;;;;11.97;2.10;;;;;;;;;;5050850;28;20264;-61
2022/11/01 13:29:37;;;;;;;10.40;1.83;;;;;;;;;;5050586;28;20052;-61
2022/11/01 13:32:27;;;;;;;10.80;2.43;;;;;;;;;;5050939;28;20045;-61
2022/11/01 13:34:56;;;;;;;13.13;2.23;;;;;;;;;;5051052;28;20049;-61
2022/11/01 13:37:30;;;;;;;8.87;2.77;;;;;;;;;;5050206;28;20506;-61
2022/11/01 13:40:14;;;;;;;8.10;2.20;;;;;;;;;;5051058;28;20077;-61
2022/11/01 13:42:43;;;;;;;5.73;1.90;;;;;;;;;;5050490;28;20141;-61
2022/11/01 13:45:12;;;;;;;7.20;1.90;;;;;;;;;;5051338;28;20087;-61
2022/11/01 13:47:41;;;;;;;8.43;1.77;;;;;;;;;;5050292;28;20503;-61
2022/11/01 13:50:21;;;;;;;9.13;2.40;;;;;;;;;;5050513;28;20049;-61
2022/11/01 13:53:00;;;;;;;9.07;2.27;;;;;;;;;;5050573;28;20053;-63
2022/11/01 13:55:31;;;;;;;8.50;2.03;;;;;;;;;;5050765;28;20495;-63
2022/11/01 13:57:57;;;;;;;10.23;2.27;;;;;;;;;;5050883;28;20556;-64
2022/11/01 14:00:43;;;;;;;11.20;2.50;;;;;;;;;;5050204;28;20041;-64
2022/11/01 14:03:20;;;;;;;11.80;2.30;;;;;;;;;;5049969;28;20510;-64
2022/11/01 14:05:47;;;;;;;5.37;1.33;;;;;;;;;;5049596;28;20045;-64
2022/11/01 14:08:15;;;;;;;11.43;2.50;;;;;;;;;;5050494;28;20051;-64
2022/11/01 14:10:45;;;;;;;10.40;2.20;;;;;;;;;;5049483;28;20044;-63
2022/11/01 14:13:15;;;;;;;8.47;1.70;;;;;;;;;;5063257;28;20594;-63
2022/11/01 14:15:53;;;;;;;9.07;1.90;;;;;;;;;;5069873;28;20076;-63
2022/11/01 14:18:19;;;;;;;7.67;1.90;;;;;;;;;;5069339;28;20426;-64
2022/11/01 14:20:48;;;;;;;12.73;1.80;;;;;;;;;;5066544;28;20048;-64
2022/11/01 14:23:26;;;;;;;7.67;2.03;;;;;;;;;;5066798;28;20059;-63
2022/11/01 14:26:12;;;;;;;8.83;1.80;;;;;;;;;;5050269;28;20527;-63
2022/11/01 14:28:42;;;;;;;10.27;2.10;;;;;;;;;;5050875;28;20045;-63
2022/11/01 14:31:08;;;;;;;8.40;2.13;;;;;;;;;;5050209;28;20098;-64
2022/11/01 14:33:35;;;;;;;7.20;1.80;;;;;;;;;;5053697;28;20068;-63
2022/11/01 14:36:02;;;;;;;8.13;1.50;;;;;;;;;;5049981;28;20048;-63
2022/11/01 14:38:35;;;;;;;9.97;2.53;;;;;;;;;;5062200;28;20410;-63
2022/11/01 14:41:01;;;;;;;10.20;1.67;;;;;;;;;;5069499;28;20051;-63
2022/11/01 14:43:29;;;;;;;13.60;2.20;;;;;;;;;;5069295;28;20049;-63
2022/11/01 14:46:00;;;;;;;6.67;1.87;;;;;;;;;;5067857;28;20049;-64
2022/11/01 14:48:41;;;;;;;7.27;2.23;;;;;;;;;;5069415;28;20044;-63
2022/11/01 14:51:25;;;;;;;9.50;2.13;;;;;;;;;;5069493;28;20388;-63